createdAt,value
2024-03-07T00:00:39.446Z,26.31
2024-03-07T00:01:39.469Z,26.32
2024-03-07T00:02:39.570Z,26.31
2024-03-07T00:03:39.556Z,26.30
2024-03-07T00:04:39.682Z,26.30
2024-03-07T00:05:39.672Z,26.30
2024-03-07T00:06:39.687Z,26.28
2024-03-07T00:07:39.744Z,26.30
2024-03-07T00:08:39.817Z,26.28
2024-03-07T00:09:40.276Z,26.27
2024-03-07T00:10:39.854Z,26.31
2024-03-07T00:11:40.014Z,26.31
2024-03-07T00:12:39.994Z,26.29
2024-03-07T00:13:40.049Z,26.30
2024-03-07T00:14:40.082Z,26.28
2024-03-07T00:15:40.064Z,26.29
2024-03-07T00:16:40.139Z,26.30
2024-03-07T00:17:40.294Z,26.29
2024-03-07T00:18:40.252Z,26.30
2024-03-07T00:19:40.248Z,26.30
2024-03-07T00:20:40.341Z,26.31
2024-03-07T00:21:40.349Z,26.31
2024-03-07T00:22:40.400Z,26.29
2024-03-07T00:23:40.514Z,26.30
2024-03-07T00:24:40.496Z,26.30
2024-03-07T00:25:40.531Z,26.31
2024-03-07T00:26:40.642Z,26.29
2024-03-07T00:27:40.627Z,26.29
2024-03-07T00:28:40.928Z,26.29
2024-03-07T00:29:40.749Z,26.30
2024-03-07T00:30:40.756Z,26.31
2024-03-07T00:31:40.812Z,26.28
2024-03-07T00:32:41.268Z,26.29
2024-03-07T00:33:53.432Z,26.30
2024-03-07T00:34:41.917Z,26.31
2024-03-07T00:35:40.896Z,26.30
2024-03-07T00:36:40.879Z,26.31
2024-03-07T00:37:40.888Z,26.31
2024-03-07T00:38:40.948Z,26.31
2024-03-07T00:39:40.875Z,26.32
2024-03-07T00:40:40.880Z,26.31
2024-03-07T00:41:40.991Z,26.30
2024-03-07T00:42:40.891Z,26.30
2024-03-07T00:43:40.920Z,26.30
2024-03-07T00:44:41.018Z,26.30
2024-03-07T00:45:41.023Z,26.31
2024-03-07T00:46:41.069Z,26.29
2024-03-07T00:47:41.324Z,26.30
2024-03-07T00:48:41.180Z,26.31
2024-03-07T00:49:41.235Z,26.30
2024-03-07T00:50:41.291Z,26.33
2024-03-07T00:51:41.303Z,26.29
2024-03-07T00:52:41.363Z,26.32
2024-03-07T00:53:41.458Z,26.31
2024-03-07T00:54:41.469Z,26.31
2024-03-07T00:55:41.525Z,26.31
2024-03-07T00:56:41.550Z,26.31
2024-03-07T00:57:41.581Z,26.32
2024-03-07T00:58:41.656Z,26.31
2024-03-07T00:59:41.712Z,26.30
2024-03-07T01:00:41.715Z,26.30
2024-03-07T01:01:41.813Z,26.31
2024-03-07T01:02:41.848Z,26.31
2024-03-07T01:03:41.879Z,26.30
2024-03-07T01:04:41.921Z,26.30
2024-03-07T01:05:41.995Z,26.30
2024-03-07T01:06:42.006Z,26.30
2024-03-07T01:07:42.052Z,26.31
2024-03-07T01:08:42.187Z,26.31
2024-03-07T01:09:42.133Z,26.29
2024-03-07T01:10:42.224Z,26.28
2024-03-07T01:11:42.276Z,26.26
2024-03-07T01:12:42.268Z,26.26
2024-03-07T01:13:42.346Z,26.24
2024-03-07T01:14:42.401Z,26.27
2024-03-07T01:15:42.400Z,26.27
2024-03-07T01:16:42.449Z,26.26
2024-03-07T01:17:42.604Z,26.26
2024-03-07T01:18:42.548Z,26.24
2024-03-07T01:19:42.608Z,26.25
2024-03-07T01:20:42.672Z,26.23
2024-03-07T01:21:42.657Z,26.22
2024-03-07T01:22:42.726Z,26.22
2024-03-07T01:23:42.831Z,26.22
2024-03-07T01:24:42.836Z,26.24
2024-03-07T01:25:42.851Z,26.22
2024-03-07T01:26:42.944Z,26.23
2024-03-07T01:27:42.941Z,26.21
2024-03-07T01:28:43.013Z,26.20
2024-03-07T01:29:43.041Z,26.22
2024-03-07T01:30:43.085Z,26.23
2024-03-07T01:31:43.128Z,26.23
2024-03-07T01:32:43.235Z,26.19
2024-03-07T01:33:43.318Z,26.21
2024-03-07T01:34:43.276Z,26.21
2024-03-07T01:35:43.356Z,26.21
2024-03-07T01:36:43.381Z,26.18
2024-03-07T01:37:43.428Z,26.20
2024-03-07T01:38:43.512Z,26.21
2024-03-07T01:39:43.523Z,26.19
2024-03-07T01:40:43.568Z,26.17
2024-03-07T01:41:43.622Z,26.19
2024-03-07T01:42:43.658Z,26.18
2024-03-07T01:43:43.713Z,26.16
2024-03-07T01:44:43.831Z,26.16
2024-03-07T01:45:43.789Z,26.17
2024-03-07T01:46:43.851Z,26.17
2024-03-07T01:47:43.975Z,26.20
2024-03-07T01:48:43.959Z,26.17
2024-03-07T01:49:43.994Z,26.17
2024-03-07T01:50:44.041Z,26.17
2024-03-07T01:51:44.065Z,26.18
2024-03-07T01:52:44.132Z,26.17
2024-03-07T01:53:44.199Z,26.16
2024-03-07T01:54:44.218Z,26.16
2024-03-07T01:55:44.251Z,26.18
2024-03-07T01:56:44.322Z,26.14
2024-03-07T01:57:44.338Z,26.16
2024-03-07T01:58:44.404Z,26.16
2024-03-07T01:59:44.490Z,26.16
2024-03-07T02:00:44.503Z,26.15
2024-03-07T02:01:44.545Z,26.15
2024-03-07T02:02:44.624Z,26.13
2024-03-07T02:03:44.627Z,26.16
2024-03-07T02:04:44.678Z,26.16
2024-03-07T02:05:44.748Z,26.15
2024-03-07T02:06:44.759Z,26.16
2024-03-07T02:07:44.815Z,26.14
2024-03-07T02:08:44.871Z,26.14
2024-03-07T02:09:44.896Z,26.15
2024-03-07T02:10:44.979Z,26.16
2024-03-07T02:11:45.078Z,26.16
2024-03-07T02:12:45.050Z,26.15
2024-03-07T02:13:45.111Z,26.14
2024-03-07T02:14:45.186Z,26.16
2024-03-07T02:15:45.190Z,26.14
2024-03-07T02:16:45.231Z,26.13
2024-03-07T02:17:45.337Z,26.14
2024-03-07T02:18:45.412Z,26.15
2024-03-07T02:19:45.408Z,26.16
2024-03-07T02:20:45.473Z,26.13
2024-03-07T02:21:45.474Z,26.14
2024-03-07T02:22:45.509Z,26.13
2024-03-07T02:23:45.618Z,26.13
2024-03-07T02:24:45.587Z,26.14
2024-03-07T02:25:45.654Z,26.12
2024-03-07T02:26:45.734Z,26.13
2024-03-07T02:27:45.732Z,26.14
2024-03-07T02:28:45.819Z,26.14
2024-03-07T02:29:45.893Z,26.16
2024-03-07T02:30:45.925Z,26.14
2024-03-07T02:31:45.938Z,26.12
2024-03-07T02:32:46.031Z,26.14
2024-03-07T02:33:46.086Z,26.14
2024-03-07T02:34:46.081Z,26.13
2024-03-07T02:35:46.226Z,26.14
2024-03-07T02:36:46.202Z,26.13
2024-03-07T02:37:46.239Z,26.13
2024-03-07T02:38:46.405Z,26.13
2024-03-07T02:39:46.421Z,26.13
2024-03-07T02:40:46.397Z,26.13
2024-03-07T02:41:46.486Z,26.13
2024-03-07T02:42:46.483Z,26.13
2024-03-07T02:43:46.560Z,26.11
2024-03-07T02:44:46.736Z,26.12
2024-03-07T02:45:46.642Z,26.11
2024-03-07T02:46:46.707Z,26.11
2024-03-07T02:47:46.802Z,26.11
2024-03-07T02:48:46.834Z,26.11
2024-03-07T02:49:46.845Z,26.11
2024-03-07T02:50:46.927Z,26.12
2024-03-07T02:51:46.931Z,26.10
2024-03-07T02:52:46.996Z,26.13
2024-03-07T02:53:47.090Z,26.12
2024-03-07T02:54:47.089Z,26.12
2024-03-07T02:55:47.153Z,26.12
2024-03-07T02:56:47.276Z,26.12
2024-03-07T02:57:47.275Z,26.12
2024-03-07T02:58:47.316Z,26.11
2024-03-07T02:59:47.494Z,26.11
2024-03-07T03:00:47.398Z,26.14
2024-03-07T03:01:47.476Z,26.12
2024-03-07T03:02:47.636Z,26.13
2024-03-07T03:03:47.572Z,26.12
2024-03-07T03:04:47.606Z,26.12
2024-03-07T03:05:47.685Z,26.13
2024-03-07T03:06:47.712Z,26.14
2024-03-07T03:07:47.756Z,26.12
2024-03-07T03:08:47.876Z,26.11
2024-03-07T03:09:47.858Z,26.13
2024-03-07T03:10:47.982Z,26.12
2024-03-07T03:11:48.063Z,26.14
2024-03-07T03:12:48.004Z,26.14
2024-03-07T03:13:48.095Z,26.15
2024-03-07T03:14:48.167Z,26.13
2024-03-07T03:15:48.188Z,26.14
2024-03-07T03:16:49.098Z,26.13
2024-03-07T03:17:48.374Z,26.13
2024-03-07T03:18:48.370Z,26.15
2024-03-07T03:19:48.379Z,26.13
2024-03-07T03:20:48.486Z,26.14
2024-03-07T03:21:48.461Z,26.14
2024-03-07T03:22:48.518Z,26.15
2024-03-07T03:23:48.592Z,26.14
2024-03-07T03:24:48.611Z,26.15
2024-03-07T03:25:48.661Z,26.15
2024-03-07T03:26:48.765Z,26.13
2024-03-07T03:27:48.753Z,26.14
2024-03-07T03:28:48.831Z,26.14
2024-03-07T03:29:48.890Z,26.14
2024-03-07T03:30:48.947Z,26.13
2024-03-07T03:31:48.955Z,26.14
2024-03-07T03:32:49.158Z,26.14
2024-03-07T03:33:49.061Z,26.15
2024-03-07T03:34:49.110Z,26.16
2024-03-07T03:35:49.212Z,26.16
2024-03-07T03:36:49.177Z,26.14
2024-03-07T03:37:49.248Z,26.15
2024-03-07T03:38:49.329Z,26.14
2024-03-07T03:39:49.311Z,26.14
2024-03-07T03:40:49.369Z,26.14
2024-03-07T03:41:49.427Z,26.15
2024-03-07T03:42:49.443Z,26.13
2024-03-07T03:43:49.528Z,26.13
2024-03-07T03:44:49.579Z,26.15
2024-03-07T03:45:49.594Z,26.12
2024-03-07T03:46:49.643Z,26.14
2024-03-07T03:47:49.800Z,26.13
2024-03-07T03:48:49.762Z,26.14
2024-03-07T03:49:49.794Z,26.14
2024-03-07T03:50:49.895Z,26.14
2024-03-07T03:51:49.899Z,26.13
2024-03-07T03:52:49.953Z,26.14
2024-03-07T03:53:50.077Z,26.14
2024-03-07T03:54:50.040Z,26.15
2024-03-07T03:55:50.085Z,26.13
2024-03-07T03:56:50.180Z,26.13
2024-03-07T03:57:50.934Z,26.12
2024-03-07T03:58:50.255Z,26.13
2024-03-07T03:59:50.381Z,26.13
2024-03-07T04:00:50.320Z,26.12
2024-03-07T04:01:50.438Z,26.14
2024-03-07T04:02:51.187Z,26.13
2024-03-07T04:03:50.466Z,26.13
2024-03-07T04:04:50.507Z,26.12
2024-03-07T04:05:50.628Z,26.13
2024-03-07T04:06:50.628Z,26.13
2024-03-07T04:07:50.729Z,26.14
2024-03-07T04:08:50.742Z,26.13
2024-03-07T04:09:50.732Z,26.13
2024-03-07T04:10:50.890Z,26.14
2024-03-07T04:11:50.882Z,26.13
2024-03-07T04:12:50.894Z,26.12
2024-03-07T04:13:50.948Z,26.12
2024-03-07T04:14:50.979Z,26.12
2024-03-07T04:15:51.153Z,26.10
2024-03-07T04:16:51.167Z,26.14
2024-03-07T04:17:51.285Z,26.13
2024-03-07T04:18:51.224Z,26.13
2024-03-07T04:19:51.201Z,26.13
2024-03-07T04:20:51.282Z,26.13
2024-03-07T04:21:51.330Z,26.10
2024-03-07T04:22:51.360Z,26.12
2024-03-07T04:23:51.419Z,26.11
2024-03-07T04:24:51.463Z,26.12
2024-03-07T04:25:51.499Z,26.12
2024-03-07T04:26:58.805Z,26.14
2024-03-07T04:27:58.732Z,26.14
2024-03-07T04:28:58.749Z,26.12
2024-03-07T04:29:58.796Z,26.13
2024-03-07T04:30:58.717Z,26.14
2024-03-07T04:32:05.956Z,26.15
2024-03-07T04:33:06.026Z,26.13
2024-03-07T04:34:05.958Z,26.14
2024-03-07T04:35:05.947Z,26.13
2024-03-07T04:36:06.048Z,26.15
2024-03-07T04:37:05.950Z,26.13
2024-03-07T04:38:05.961Z,26.13
2024-03-07T04:39:05.984Z,26.13
2024-03-07T04:40:05.968Z,26.13
2024-03-07T04:41:05.957Z,26.12
2024-03-07T04:42:06.011Z,26.12
2024-03-07T04:43:05.953Z,26.12
2024-03-07T04:44:05.961Z,26.14
2024-03-07T04:45:05.944Z,26.12
2024-03-07T04:46:05.965Z,26.12
2024-03-07T04:47:05.948Z,26.11
2024-03-07T04:48:06.008Z,26.12
2024-03-07T04:49:05.977Z,26.11
2024-03-07T04:50:05.962Z,26.10
2024-03-07T04:51:06.045Z,26.11
2024-03-07T04:52:05.992Z,26.10
2024-03-07T04:53:05.958Z,26.11
2024-03-07T04:54:05.997Z,26.10
2024-03-07T04:55:05.962Z,26.11
2024-03-07T04:56:05.967Z,26.10
2024-03-07T04:57:05.993Z,26.10
2024-03-07T04:58:05.974Z,26.08
2024-03-07T04:59:06.000Z,26.10
2024-03-07T05:00:06.033Z,26.10
2024-03-07T05:01:06.124Z,26.10
2024-03-07T05:02:06.154Z,26.10
2024-03-07T05:03:06.282Z,26.11
2024-03-07T05:04:06.251Z,26.09
2024-03-07T05:05:06.270Z,26.10
2024-03-07T05:06:06.342Z,26.11
2024-03-07T05:07:06.386Z,26.08
2024-03-07T05:08:06.427Z,26.10
2024-03-07T05:09:06.542Z,26.08
2024-03-07T05:10:06.542Z,26.07
2024-03-07T05:11:06.655Z,26.08
2024-03-07T05:12:06.646Z,26.08
2024-03-07T05:13:06.648Z,26.08
2024-03-07T05:14:06.740Z,26.09
2024-03-07T05:15:06.792Z,26.09
2024-03-07T05:16:06.830Z,26.09
2024-03-07T05:17:06.918Z,26.09
2024-03-07T05:18:07.004Z,26.08
2024-03-07T05:19:06.979Z,26.09
2024-03-07T05:20:07.005Z,26.08
2024-03-07T05:21:07.104Z,26.08
2024-03-07T05:22:07.235Z,26.09
2024-03-07T05:23:07.209Z,26.08
2024-03-07T05:24:07.308Z,26.08
2024-03-07T05:25:07.248Z,26.08
2024-03-07T05:26:07.297Z,26.08
2024-03-07T05:27:07.346Z,26.08
2024-03-07T05:28:07.391Z,26.06
2024-03-07T05:29:07.461Z,26.09
2024-03-07T05:30:10.505Z,26.07
2024-03-07T05:31:07.505Z,26.07
2024-03-07T05:32:07.501Z,26.05
2024-03-07T05:33:07.582Z,26.07
2024-03-07T05:34:07.537Z,26.06
2024-03-07T05:35:07.616Z,26.07
2024-03-07T05:36:07.558Z,26.05
2024-03-07T05:37:07.502Z,26.04
2024-03-07T05:38:07.528Z,26.07
2024-03-07T05:39:07.521Z,26.05
2024-03-07T05:40:07.515Z,26.04
2024-03-07T05:41:07.506Z,26.06
2024-03-07T05:42:07.568Z,26.06
2024-03-07T05:43:07.515Z,26.05
2024-03-07T05:44:07.530Z,26.04
2024-03-07T05:45:07.556Z,26.03
2024-03-07T05:46:07.524Z,26.04
2024-03-07T05:47:07.524Z,26.05
2024-03-07T05:48:07.594Z,26.03
2024-03-07T05:49:07.551Z,26.03
2024-03-07T05:50:07.523Z,26.05
2024-03-07T05:51:07.590Z,26.06
2024-03-07T05:52:07.545Z,26.04
2024-03-07T05:53:07.545Z,26.04
2024-03-07T05:54:07.568Z,26.04
2024-03-07T05:55:07.581Z,26.03
2024-03-07T05:56:07.537Z,26.04
2024-03-07T05:57:07.535Z,26.05
2024-03-07T05:58:07.556Z,26.04
2024-03-07T05:59:07.577Z,26.04
2024-03-07T06:00:07.616Z,26.04
2024-03-07T06:01:07.614Z,26.04
2024-03-07T06:02:07.576Z,26.04
2024-03-07T06:03:07.625Z,26.05
2024-03-07T06:04:07.584Z,26.08
2024-03-07T06:05:07.552Z,26.04
2024-03-07T06:06:07.572Z,26.05
2024-03-07T06:07:07.580Z,26.06
2024-03-07T06:08:07.558Z,26.06
2024-03-07T06:09:07.616Z,26.05
2024-03-07T06:10:07.604Z,26.08
2024-03-07T06:11:07.648Z,26.06
2024-03-07T06:12:13.733Z,26.07
2024-03-07T06:13:11.016Z,26.06
2024-03-07T06:14:07.763Z,26.09
2024-03-07T06:15:07.590Z,26.05
2024-03-07T06:16:07.581Z,26.08
2024-03-07T06:17:07.596Z,26.09
2024-03-07T06:18:07.642Z,26.09
2024-03-07T06:19:10.491Z,26.09
2024-03-07T06:20:07.609Z,26.11
2024-03-07T06:21:07.604Z,26.09
2024-03-07T06:22:07.587Z,26.10
2024-03-07T06:23:07.597Z,26.10
2024-03-07T06:24:08.122Z,26.10
2024-03-07T06:25:07.675Z,26.12
2024-03-07T06:26:07.620Z,26.11
2024-03-07T06:27:07.742Z,26.11
2024-03-07T06:28:07.616Z,26.11
2024-03-07T06:29:07.608Z,26.33
2024-03-07T06:30:08.115Z,26.56
2024-03-07T06:31:07.608Z,27.03
2024-03-07T06:32:07.619Z,27.27
2024-03-07T06:33:07.806Z,27.46
2024-03-07T06:34:07.609Z,27.74
2024-03-07T06:35:08.133Z,28.03
2024-03-07T06:36:07.736Z,28.41
2024-03-07T06:37:09.634Z,28.31
2024-03-07T06:38:15.747Z,28.10
2024-03-07T06:39:08.760Z,29.14
2024-03-07T06:40:08.125Z,29.83
2024-03-07T06:41:07.660Z,30.23
2024-03-07T06:42:07.665Z,29.92
2024-03-07T06:43:07.945Z,29.52
2024-03-07T06:44:07.640Z,29.52
2024-03-07T06:45:07.814Z,29.39
2024-03-07T06:46:07.694Z,29.28
2024-03-07T06:47:07.649Z,29.00
2024-03-07T06:48:07.716Z,29.47
2024-03-07T06:49:07.656Z,29.07
2024-03-07T06:50:08.746Z,28.45
2024-03-07T06:51:07.652Z,28.65
2024-03-07T06:52:07.664Z,28.29
2024-03-07T06:53:07.676Z,28.24
2024-03-07T06:54:07.689Z,28.25
2024-03-07T06:55:07.679Z,28.91
2024-03-07T06:56:07.702Z,28.56
2024-03-07T06:57:07.708Z,28.52
2024-03-07T06:58:07.834Z,28.32
2024-03-07T06:59:07.679Z,28.24
2024-03-07T07:00:07.685Z,28.28
2024-03-07T07:01:07.727Z,28.35
2024-03-07T07:02:07.713Z,28.34
2024-03-07T07:03:08.170Z,28.37
2024-03-07T07:04:07.686Z,28.33
2024-03-07T07:05:07.691Z,28.36
2024-03-07T07:06:07.738Z,28.39
2024-03-07T07:07:07.685Z,28.30
2024-03-07T07:08:08.004Z,28.34
2024-03-07T07:09:07.771Z,28.26
2024-03-07T07:10:08.153Z,28.34
2024-03-07T07:11:07.817Z,28.18
2024-03-07T07:12:07.735Z,28.22
2024-03-07T07:13:07.717Z,28.14
2024-03-07T07:14:07.704Z,28.10
2024-03-07T07:15:07.836Z,28.17
2024-03-07T07:16:07.778Z,28.17
2024-03-07T07:17:10.940Z,28.11
2024-03-07T07:18:08.792Z,28.08
2024-03-07T07:19:07.724Z,28.05
2024-03-07T07:20:07.738Z,27.99
2024-03-07T07:21:07.807Z,27.95
2024-03-07T07:22:07.758Z,27.97
2024-03-07T07:23:07.726Z,27.94
2024-03-07T07:24:07.802Z,27.99
2024-03-07T07:25:07.744Z,27.93
2024-03-07T07:26:07.755Z,27.93
2024-03-07T07:27:07.748Z,27.93
2024-03-07T07:28:07.752Z,27.90
2024-03-07T07:29:07.742Z,27.81
2024-03-07T07:30:07.752Z,27.81
2024-03-07T07:31:07.750Z,28.50
2024-03-07T07:32:07.744Z,28.83
2024-03-07T07:33:07.806Z,29.31
2024-03-07T07:34:07.781Z,29.91
2024-03-07T07:35:08.118Z,29.44
2024-03-07T07:36:07.853Z,28.89
2024-03-07T07:37:07.771Z,28.53
2024-03-07T07:38:07.771Z,28.70
2024-03-07T07:39:08.611Z,28.88
2024-03-07T07:40:08.138Z,29.13
2024-03-07T07:41:07.773Z,29.11
2024-03-07T07:42:10.500Z,29.98
2024-03-07T07:43:07.783Z,29.75
2024-03-07T07:44:07.772Z,30.65
2024-03-07T07:45:07.903Z,29.92
2024-03-07T07:46:07.780Z,29.85
2024-03-07T07:47:07.768Z,30.61
2024-03-07T07:48:07.821Z,30.76
2024-03-07T07:49:07.801Z,30.60
2024-03-07T07:50:07.822Z,30.57
2024-03-07T07:51:08.055Z,30.76
2024-03-07T07:52:07.783Z,31.08
2024-03-07T07:53:07.805Z,31.14
2024-03-07T07:54:07.875Z,31.35
2024-03-07T07:55:07.807Z,31.07
2024-03-07T07:56:07.966Z,31.31
2024-03-07T07:57:07.868Z,30.94
2024-03-07T07:58:07.802Z,31.02
2024-03-07T07:59:07.796Z,30.65
2024-03-07T08:00:07.790Z,30.99
2024-03-07T08:01:07.875Z,30.90
2024-03-07T08:02:07.809Z,30.78
2024-03-07T08:03:07.873Z,30.84
2024-03-07T08:04:07.800Z,30.38
2024-03-07T08:05:10.185Z,30.54
2024-03-07T08:06:08.083Z,30.58
2024-03-07T08:07:08.078Z,30.78
2024-03-07T08:08:08.392Z,30.63
2024-03-07T08:09:08.279Z,30.62
2024-03-07T08:10:08.300Z,30.06
2024-03-07T08:11:08.381Z,30.36
2024-03-07T08:12:08.469Z,30.38
2024-03-07T08:13:08.472Z,30.19
2024-03-07T08:14:08.556Z,30.23
2024-03-07T08:15:08.644Z,30.23
2024-03-07T08:16:08.688Z,30.14
2024-03-07T08:17:08.751Z,30.10
2024-03-07T08:18:08.868Z,30.07
2024-03-07T08:19:08.882Z,30.09
2024-03-07T08:20:08.928Z,30.00
2024-03-07T08:21:09.056Z,29.94
2024-03-07T08:22:09.195Z,29.84
2024-03-07T08:23:09.111Z,29.92
2024-03-07T08:24:09.223Z,29.90
2024-03-07T08:25:09.638Z,29.95
2024-03-07T08:26:09.291Z,29.82
2024-03-07T08:27:09.351Z,29.77
2024-03-07T08:28:09.422Z,30.08
2024-03-07T08:29:09.472Z,30.24
2024-03-07T08:30:09.634Z,30.50
2024-03-07T08:31:09.605Z,30.39
2024-03-07T08:32:09.660Z,30.76
2024-03-07T08:33:09.810Z,30.84
2024-03-07T08:34:09.778Z,30.65
2024-03-07T08:35:09.810Z,30.62
2024-03-07T08:36:09.888Z,30.44
2024-03-07T08:37:09.875Z,30.29
2024-03-07T08:38:09.985Z,30.18
2024-03-07T08:39:09.972Z,30.15
2024-03-07T08:40:10.009Z,29.74
2024-03-07T08:41:10.042Z,29.95
2024-03-07T08:42:10.077Z,30.01
2024-03-07T08:43:10.118Z,29.91
2024-03-07T08:44:10.127Z,29.71
2024-03-07T08:45:10.649Z,30.02
2024-03-07T08:46:10.195Z,29.84
2024-03-07T08:47:10.231Z,29.89
2024-03-07T08:48:10.786Z,30.06
2024-03-07T08:49:10.302Z,29.99
2024-03-07T08:50:10.339Z,30.04
2024-03-07T08:51:10.392Z,29.96
2024-03-07T08:52:10.372Z,29.89
2024-03-07T08:53:10.395Z,29.85
2024-03-07T08:54:10.452Z,29.76
2024-03-07T08:55:10.462Z,29.85
2024-03-07T08:56:10.470Z,29.70
2024-03-07T08:57:10.491Z,29.72
2024-03-07T08:58:10.530Z,29.67
2024-03-07T08:59:10.549Z,29.58
2024-03-07T09:00:10.578Z,29.53
2024-03-07T09:01:10.608Z,29.43
2024-03-07T09:02:10.609Z,29.45
2024-03-07T09:03:11.438Z,29.32
2024-03-07T09:04:10.666Z,29.48
2024-03-07T09:05:10.697Z,29.59
2024-03-07T09:06:10.780Z,29.49
2024-03-07T09:07:10.712Z,29.57
2024-03-07T09:08:10.741Z,29.44
2024-03-07T09:09:10.818Z,29.14
2024-03-07T09:10:10.809Z,29.19
2024-03-07T09:11:10.820Z,29.01
2024-03-07T09:12:10.992Z,29.07
2024-03-07T09:13:10.803Z,29.04
2024-03-07T09:14:10.862Z,29.08
2024-03-07T09:15:10.960Z,29.03
2024-03-07T09:16:10.846Z,29.13
2024-03-07T09:17:10.877Z,29.23
2024-03-07T09:18:11.151Z,29.25
2024-03-07T09:19:10.877Z,29.26
2024-03-07T09:20:12.057Z,29.26
2024-03-07T09:21:10.945Z,29.24
2024-03-07T09:22:10.912Z,28.54
2024-03-07T09:23:10.943Z,28.80
2024-03-07T09:24:10.996Z,28.55
2024-03-07T09:25:10.965Z,27.98
2024-03-07T09:26:11.034Z,27.75
2024-03-07T09:27:11.056Z,27.44
2024-03-07T09:28:11.093Z,27.60
2024-03-07T09:29:11.146Z,27.92
2024-03-07T09:30:11.215Z,28.25
2024-03-07T09:31:11.269Z,28.58
2024-03-07T09:32:11.368Z,28.64
2024-03-07T09:33:11.570Z,28.70
2024-03-07T09:34:11.480Z,28.70
2024-03-07T09:35:11.564Z,29.08
2024-03-07T09:36:11.719Z,28.91
2024-03-07T09:37:11.655Z,28.45
2024-03-07T09:38:11.720Z,28.07
2024-03-07T09:39:11.812Z,28.03
2024-03-07T09:40:12.242Z,27.46
2024-03-07T09:41:11.949Z,26.96
2024-03-07T09:42:12.020Z,26.79
2024-03-07T09:43:12.167Z,26.84
2024-03-07T09:44:12.124Z,26.72
2024-03-07T09:45:12.140Z,26.91
2024-03-07T09:46:12.153Z,26.72
2024-03-07T09:47:12.185Z,26.81
2024-03-07T09:48:12.378Z,26.79
2024-03-07T09:49:12.280Z,26.70
2024-03-07T09:50:12.317Z,26.72
2024-03-07T09:51:12.412Z,26.56
2024-03-07T09:52:12.410Z,26.73
2024-03-07T09:53:12.486Z,26.81
2024-03-07T09:54:12.520Z,26.84
2024-03-07T09:55:12.592Z,26.74
2024-03-07T09:56:12.638Z,26.66
2024-03-07T09:57:12.666Z,26.48
2024-03-07T09:58:12.750Z,26.58
2024-03-07T09:59:12.780Z,27.00
2024-03-07T10:00:12.863Z,27.06
2024-03-07T10:01:12.964Z,26.96
2024-03-07T10:02:12.951Z,27.05
2024-03-07T10:03:13.028Z,26.83
2024-03-07T10:04:13.103Z,26.89
2024-03-07T10:05:15.997Z,26.83
2024-03-07T10:06:13.155Z,26.78
2024-03-07T10:07:13.084Z,26.63
2024-03-07T10:08:13.094Z,26.67
2024-03-07T10:09:13.081Z,26.51
2024-03-07T10:10:13.194Z,26.69
2024-03-07T10:11:13.117Z,26.64
2024-03-07T10:12:13.198Z,26.84
2024-03-07T10:13:13.088Z,26.79
2024-03-07T10:14:13.113Z,26.73
2024-03-07T10:15:13.086Z,26.92
2024-03-07T10:16:13.105Z,26.87
2024-03-07T10:17:13.100Z,26.99
2024-03-07T10:18:13.535Z,26.74
2024-03-07T10:19:13.097Z,26.91
2024-03-07T10:20:13.106Z,26.82
2024-03-07T10:21:13.235Z,27.21
2024-03-07T10:22:13.107Z,27.44
2024-03-07T10:23:13.117Z,27.40
2024-03-07T10:24:13.104Z,27.62
2024-03-07T10:25:13.098Z,27.57
2024-03-07T10:26:13.189Z,28.43
2024-03-07T10:27:13.102Z,29.20
2024-03-07T10:28:13.114Z,29.41
2024-03-07T10:29:13.104Z,29.34
2024-03-07T10:30:15.136Z,29.14
2024-03-07T10:31:13.190Z,29.04
2024-03-07T10:32:13.112Z,28.82
2024-03-07T10:33:13.180Z,28.86
2024-03-07T10:34:13.118Z,27.84
2024-03-07T10:35:13.113Z,27.71
2024-03-07T10:36:13.249Z,27.86
2024-03-07T10:37:13.112Z,27.66
2024-03-07T10:38:15.389Z,27.41
2024-03-07T10:39:13.111Z,27.46
2024-03-07T10:40:13.233Z,27.29
2024-03-07T10:41:13.118Z,27.55
2024-03-07T10:42:13.424Z,27.19
2024-03-07T10:43:13.315Z,27.24
2024-03-07T10:44:13.134Z,26.91
2024-03-07T10:45:13.158Z,26.67
2024-03-07T10:46:13.175Z,26.67
2024-03-07T10:47:13.144Z,26.96
2024-03-07T10:48:13.254Z,26.76
2024-03-07T10:49:13.146Z,26.71
2024-03-07T10:50:13.133Z,26.63
2024-03-07T10:51:13.167Z,26.60
2024-03-07T10:52:13.149Z,26.65
2024-03-07T10:53:13.155Z,26.70
2024-03-07T10:54:13.186Z,26.48
2024-03-07T10:55:14.679Z,26.38
2024-03-07T10:56:13.157Z,26.62
2024-03-07T10:57:13.252Z,26.39
2024-03-07T10:58:13.167Z,26.43
2024-03-07T10:59:13.167Z,26.42
2024-03-07T11:00:13.230Z,26.59
2024-03-07T11:01:13.760Z,26.60
2024-03-07T11:02:13.229Z,26.36
2024-03-07T11:03:13.233Z,26.19
2024-03-07T11:04:13.276Z,26.45
2024-03-07T11:05:13.454Z,26.29
2024-03-07T11:06:13.402Z,26.39
2024-03-07T11:07:13.415Z,26.05
2024-03-07T11:08:14.355Z,26.14
2024-03-07T11:09:13.512Z,26.16
2024-03-07T11:10:13.508Z,26.39
2024-03-07T11:11:13.753Z,26.47
2024-03-07T11:12:13.543Z,26.60
2024-03-07T11:13:13.536Z,26.18
2024-03-07T11:14:13.554Z,26.11
2024-03-07T11:15:13.573Z,25.96
2024-03-07T11:16:14.227Z,25.55
2024-03-07T11:17:13.596Z,25.98
2024-03-07T11:18:13.925Z,25.86
2024-03-07T11:19:13.690Z,26.12
2024-03-07T11:20:14.233Z,25.96
2024-03-07T11:21:13.775Z,26.24
2024-03-07T11:22:13.778Z,26.50
2024-03-07T11:23:13.788Z,26.47
2024-03-07T11:24:13.802Z,26.88
2024-03-07T11:25:14.254Z,26.76
2024-03-07T11:26:13.876Z,26.80
2024-03-07T11:27:13.939Z,26.08
2024-03-07T11:28:14.019Z,25.97
2024-03-07T11:29:14.140Z,26.01
2024-03-07T11:30:14.184Z,25.67
2024-03-07T11:31:14.212Z,25.80
2024-03-07T11:32:14.339Z,25.54
2024-03-07T11:33:14.394Z,25.06
2024-03-07T11:34:14.438Z,24.95
2024-03-07T11:35:14.515Z,24.50
2024-03-07T11:36:14.564Z,24.71
2024-03-07T11:37:14.620Z,24.87
2024-03-07T11:38:14.707Z,25.23
2024-03-07T11:39:14.744Z,25.08
2024-03-07T11:40:14.848Z,25.33
2024-03-07T11:41:15.014Z,25.19
2024-03-07T11:42:14.961Z,24.80
2024-03-07T11:43:15.018Z,24.56
2024-03-07T11:44:15.063Z,24.64
2024-03-07T11:45:15.123Z,24.65
2024-03-07T11:46:15.103Z,24.45
2024-03-07T11:47:15.102Z,24.46
2024-03-07T11:48:15.138Z,24.55
2024-03-07T11:49:15.145Z,24.48
2024-03-07T11:50:15.212Z,24.15
2024-03-07T11:51:15.137Z,24.30
2024-03-07T11:52:15.169Z,24.28
2024-03-07T11:53:15.185Z,24.51
2024-03-07T11:54:15.224Z,24.45
2024-03-07T11:55:15.748Z,24.45
2024-03-07T11:56:15.294Z,24.34
2024-03-07T11:57:15.320Z,24.50
2024-03-07T11:58:15.361Z,24.22
2024-03-07T11:59:15.385Z,24.24
2024-03-07T12:00:15.460Z,24.30
2024-03-07T12:01:15.685Z,24.21
2024-03-07T12:02:15.588Z,24.19
2024-03-07T12:03:15.568Z,24.13
2024-03-07T12:04:15.612Z,24.10
2024-03-07T12:05:15.756Z,23.98
2024-03-07T12:06:15.801Z,24.18
2024-03-07T12:07:15.770Z,24.03
2024-03-07T12:08:15.828Z,23.92
2024-03-07T12:09:15.913Z,24.02
2024-03-07T12:10:15.975Z,24.47
2024-03-07T12:11:16.280Z,24.80
2024-03-07T12:12:16.092Z,25.12
2024-03-07T12:13:16.114Z,24.43
2024-03-07T12:14:16.186Z,24.09
2024-03-07T12:15:16.214Z,24.53
2024-03-07T12:16:16.744Z,24.78
2024-03-07T12:17:16.345Z,24.30
2024-03-07T12:18:16.469Z,24.23
2024-03-07T12:19:16.523Z,24.38
2024-03-07T12:20:16.758Z,24.82
2024-03-07T12:21:16.659Z,24.34
2024-03-07T12:22:16.680Z,24.03
2024-03-07T12:23:16.703Z,23.78
2024-03-07T12:24:16.859Z,23.46
2024-03-07T12:25:16.801Z,23.31
2024-03-07T12:26:16.910Z,22.94
2024-03-07T12:27:16.981Z,22.88
2024-03-07T12:28:17.016Z,23.01
2024-03-07T12:29:17.200Z,23.36
2024-03-07T12:30:17.175Z,23.20
2024-03-07T12:31:17.722Z,23.27
2024-03-07T12:32:17.452Z,23.03
2024-03-07T12:33:17.467Z,23.13
2024-03-07T12:34:17.407Z,23.03
2024-03-07T12:35:17.525Z,22.95
2024-03-07T12:36:17.492Z,22.99
2024-03-07T12:37:17.638Z,23.02
2024-03-07T12:38:17.592Z,22.81
2024-03-07T12:39:17.499Z,23.02
2024-03-07T12:40:17.470Z,23.04
2024-03-07T12:41:18.403Z,23.22
2024-03-07T12:42:17.488Z,23.22
2024-03-07T12:43:17.542Z,23.31
2024-03-07T12:44:17.580Z,23.25
2024-03-07T12:45:17.590Z,23.13
2024-03-07T12:46:17.867Z,23.21
2024-03-07T12:47:17.866Z,23.22
2024-03-07T12:48:17.864Z,23.16
2024-03-07T12:49:17.839Z,23.26
2024-03-07T12:50:17.960Z,23.60
2024-03-07T12:51:19.196Z,23.76
2024-03-07T12:52:17.986Z,23.87
2024-03-07T12:53:17.996Z,24.13